Eagle San Pedro — 9V9334 — position and weather

sailwx.info

Track history (hours):
 
Tides and Currents Weather Stations Pressure Air Temp Water Temp Dewpoint Dewpoint Depression Visibility Wind Speed Wind Dir Waves Ship Positions

Eagle San Pedro

Last reported at 2018-Jul-20 12:01 UTC. Time now 2018-Jul-20 12:24 UTC.
Position N 28°39' W 094°15'.

Length 274 m; draft 12.8 m.

Type: Tanker. MMSI: 566690000.

Date/timePositionNaut miles runAvg speedWind from/ knotsBaromVisibWave heightAir tempDewpointWater temp
2018-Jul-20 12:01N 28°39' W 094°15'3 5.2
2018-Jul-20 11:26N 28°40' W 094°12'2 4.9
2018-Jul-20 10:59N 28°41' W 094°10'0 0.5
2018-Jul-20 10:15N 28°42' W 094°10'0 0.0
2018-Jul-20 10:00N 28°42' W 094°10'0 0.0
2018-Jul-20 09:24N 28°42' W 094°10'0 0.0
2018-Jul-20 08:57N 28°42' W 094°10'0 0.0
2018-Jul-20 08:24N 28°42' W 094°10'0 0.0
2018-Jul-20 08:00N 28°42' W 094°10'0 0.0
2018-Jul-20 07:09N 28°42' W 094°10'0 0.0
2018-Jul-20 07:00N 28°42' W 094°10'0 0.0
2018-Jul-20 06:15N 28°42' W 094°10'0 0.0
2018-Jul-20 06:00N 28°42' W 094°10'0 0.0
2018-Jul-20 05:30N 28°42' W 094°10'0 0.0
2018-Jul-20 05:00N 28°42' W 094°10'0 0.0
2018-Jul-20 04:30N 28°42' W 094°10'0 0.0
2018-Jul-20 03:57N 28°42' W 094°10'0 0.0
2018-Jul-20 03:27N 28°42' W 094°10'0 0.0
2018-Jul-20 03:00N 28°42' W 094°10'0 0.1
2018-Jul-20 02:24N 28°42' W 094°10'0 0.2
2018-Jul-20 01:55N 28°42' W 094°10'1 3.2
2018-Jul-20 01:30N 28°42' W 094°11'2 4.7
2018-Jul-20 01:00N 28°43' W 094°13'3 5.3
2018-Jul-20 00:30N 28°43' W 094°17'1 0.1
2018-Jul-19 10:34N 28°42' W 094°16'0 0.2
2018-Jul-19 10:30N 28°42' W 094°16'0 0.3
2018-Jul-19 10:00N 28°42' W 094°16'0 0.8
2018-Jul-19 09:30N 28°42' W 094°16'2 4.3
2018-Jul-19 08:57N 28°43' W 094°13'2 5.2
2018-Jul-19 08:29N 28°43' W 094°10'3 5.2
2018-Jul-19 07:59N 28°43' W 094°07'1 2.2
2018-Jul-19 07:26N 28°43' W 094°06'2 3.4
2018-Jul-19 06:59N 28°43' W 094°04'0 0.5
2018-Jul-19 06:29N 28°42' W 094°04'0 0.3
2018-Jul-19 05:59N 28°42' W 094°04'0 0.6
2018-Jul-19 05:28N 28°42' W 094°05'0 0.6
2018-Jul-19 04:59N 28°43' W 094°05'0 0.6
2018-Jul-19 04:27N 28°42' W 094°05'2 4.4
2018-Jul-19 03:58N 28°43' W 094°08'611.6
2018-Jul-19 03:29N 28°44' W 094°14'611.5
2018-Jul-19 02:57N 28°47' W 094°20'1110.8
2018-Jul-19 01:55N 28°57' W 094°24'511.3
2018-Jul-19 01:30N 29°02' W 094°25'610.9
2018-Jul-19 00:59N 29°07' W 094°26'511.6
2018-Jul-19 00:30N 29°12' W 094°30'611.1
2018-Jul-19 00:00N 29°16' W 094°34'612.9
2018-Jul-18 23:30N 29°20' W 094°40'611.3
2018-Jul-18 23:00N 29°21' W 094°46'611.1
2018-Jul-18 22:31N 29°25' W 094°50'510.5
2018-Jul-18 22:00N 29°30' W 094°52'5 9.7
2018-Jul-18 21:30N 29°34' W 094°55'5 9.1
2018-Jul-18 21:00N 29°38' W 094°58'4 8.1
2018-Jul-18 20:30N 29°42' W 094°60'3 5.9
2018-Jul-18 20:01N 29°44' W 095°02'3 6.2
2018-Jul-18 19:30N 29°46' W 095°05'2 4.9
2018-Jul-18 19:00N 29°44' W 095°07'0 0.6
2018-Jul-18 18:31N 29°44' W 095°08'0 0.0
2018-Jul-18 17:52N 29°44' W 095°08'0 0.0
2018-Jul-17 08:13N 29°44' W 095°08'0 0.0
2018-Jul-17 05:55N 29°44' W 095°08'0 0.0
2018-Jul-17 05:22N 29°44' W 095°08'0 0.0
2018-Jul-17 04:52N 29°44' W 095°08'0 0.0
2018-Jul-17 03:34N 29°44' W 095°08'  
2018-Jul-14 23:34N 29°44' W 095°08'0 0.1
2018-Jul-14 23:28N 29°44' W 095°08'1 1.8
2018-Jul-14 23:00N 29°44' W 095°07'2 4.9
2018-Jul-14 22:30N 29°45' W 095°04'4 6.9
2018-Jul-14 22:00N 29°43' W 095°01'4 9.0
2018-Jul-14 21:30N 29°39' W 094°58'612.0
2018-Jul-14 21:00N 29°34' W 094°55'713.2
2018-Jul-14 20:30N 29°28' W 094°51'713.7
2018-Jul-14 20:00N 29°22' W 094°48'814.7
2018-Jul-14 19:29N 29°20' W 094°40'611.6
2018-Jul-14 19:00N 29°18' W 094°33'1 1.4
2018-Jul-14 18:25N 29°19' W 094°33'0 0.0
2018-Jul-14 17:55N 29°19' W 094°33'0 0.0
2018-Jul-14 17:28N 29°19' W 094°33'0 0.0
2018-Jul-14 16:58N 29°19' W 094°33'0 0.1
2018-Jul-14 16:25N 29°18' W 094°33'0 0.1
2018-Jul-14 15:49N 29°18' W 094°33'0 0.1
2018-Jul-14 15:28N 29°18' W 094°33'0 0.1
2018-Jul-14 14:55N 29°18' W 094°33'0 0.0
2018-Jul-14 14:28N 29°18' W 094°33'0 0.1
2018-Jul-14 13:22N 29°18' W 094°33'0 0.1
2018-Jul-14 12:58N 29°19' W 094°33'0 0.0
2018-Jul-14 09:19N 29°19' W 094°33'0 0.0
2018-Jul-14 07:52N 29°19' W 094°33'0 0.0
2018-Jul-14 06:58N 29°19' W 094°33'0 0.0
2018-Jul-14 05:25N 29°19' W 094°33'0 0.0
2018-Jul-14 04:37N 29°19' W 094°33'0 0.0
2018-Jul-14 04:01N 29°19' W 094°33'0 0.0
2018-Jul-14 03:58N 29°19' W 094°33'0 0.0
2018-Jul-14 02:46N 29°19' W 094°33'0 0.0
2018-Jul-14 01:22N 29°19' W 094°33'0 0.0
2018-Jul-14 01:00N 29°19' W 094°33'0 0.1
2018-Jul-14 00:30N 29°19' W 094°33'0 0.0
2018-Jul-14 00:00N 29°19' W 094°33'0 0.0
2018-Jul-13 23:29N 29°19' W 094°33'0 0.0
2018-Jul-13 23:01N 29°19' W 094°33'0 0.0
2018-Jul-13 22:30N 29°19' W 094°33'0 0.0
2018-Jul-13 21:59N 29°19' W 094°33'0 0.0
2018-Jul-13 21:30N 29°19' W 094°33'0 0.0
2018-Jul-13 20:59N 29°19' W 094°33'0 0.0
2018-Jul-13 20:21N 29°19' W 094°33'0 0.0
2018-Jul-13 20:00N 29°19' W 094°33'0 0.1
2018-Jul-13 19:28N 29°19' W 094°33'0 0.1
2018-Jul-13 18:59N 29°18' W 094°33'1 2.2
2018-Jul-13 18:30N 29°19' W 094°32'5 7.8
2018-Jul-13 17:54N 29°14' W 094°31'512.5
2018-Jul-13 17:30N 29°12' W 094°27'  
Track history (hours):
 
Tides and Currents Weather Stations Pressure Air Temp Water Temp Dewpoint Dewpoint Depression Visibility Wind Speed Wind Dir Waves Ship Positions

Eagle San Pedro

Last reported at 2018-Jul-20 12:01 UTC. Time now 2018-Jul-20 12:24 UTC.
Position N 28°39' W 094°15'.

Length 274 m; draft 12.8 m.

Type: Tanker. MMSI: 566690000.

Date/timePositionNaut miles runAvg speedWind from/ knotsBaromVisibWave heightAir tempDewpointWater temp
2018-Jul-20 12:01N 28°39' W 094°15'3 5.2
2018-Jul-20 11:26N 28°40' W 094°12'2 4.9
2018-Jul-20 10:59N 28°41' W 094°10'0 0.5
2018-Jul-20 10:15N 28°42' W 094°10'0 0.0
2018-Jul-20 10:00N 28°42' W 094°10'0 0.0
2018-Jul-20 09:24N 28°42' W 094°10'0 0.0
2018-Jul-20 08:57N 28°42' W 094°10'0 0.0
2018-Jul-20 08:24N 28°42' W 094°10'0 0.0
2018-Jul-20 08:00N 28°42' W 094°10'0 0.0
2018-Jul-20 07:09N 28°42' W 094°10'0 0.0
2018-Jul-20 07:00N 28°42' W 094°10'0 0.0
2018-Jul-20 06:15N 28°42' W 094°10'0 0.0
2018-Jul-20 06:00N 28°42' W 094°10'0 0.0
2018-Jul-20 05:30N 28°42' W 094°10'0 0.0
2018-Jul-20 05:00N 28°42' W 094°10'0 0.0
2018-Jul-20 04:30N 28°42' W 094°10'0 0.0
2018-Jul-20 03:57N 28°42' W 094°10'0 0.0
2018-Jul-20 03:27N 28°42' W 094°10'0 0.0
2018-Jul-20 03:00N 28°42' W 094°10'0 0.1
2018-Jul-20 02:24N 28°42' W 094°10'0 0.2
2018-Jul-20 01:55N 28°42' W 094°10'1 3.2
2018-Jul-20 01:30N 28°42' W 094°11'2 4.7
2018-Jul-20 01:00N 28°43' W 094°13'3 5.3
2018-Jul-20 00:30N 28°43' W 094°17'1 0.1
2018-Jul-19 10:34N 28°42' W 094°16'0 0.2
2018-Jul-19 10:30N 28°42' W 094°16'0 0.3
2018-Jul-19 10:00N 28°42' W 094°16'0 0.8
2018-Jul-19 09:30N 28°42' W 094°16'2 4.3
2018-Jul-19 08:57N 28°43' W 094°13'2 5.2
2018-Jul-19 08:29N 28°43' W 094°10'3 5.2
2018-Jul-19 07:59N 28°43' W 094°07'1 2.2
2018-Jul-19 07:26N 28°43' W 094°06'2 3.4
2018-Jul-19 06:59N 28°43' W 094°04'0 0.5
2018-Jul-19 06:29N 28°42' W 094°04'0 0.3
2018-Jul-19 05:59N 28°42' W 094°04'0 0.6
2018-Jul-19 05:28N 28°42' W 094°05'0 0.6
2018-Jul-19 04:59N 28°43' W 094°05'0 0.6
2018-Jul-19 04:27N 28°42' W 094°05'2 4.4
2018-Jul-19 03:58N 28°43' W 094°08'611.6
2018-Jul-19 03:29N 28°44' W 094°14'611.5
2018-Jul-19 02:57N 28°47' W 094°20'1110.8
2018-Jul-19 01:55N 28°57' W 094°24'511.3
2018-Jul-19 01:30N 29°02' W 094°25'610.9
2018-Jul-19 00:59N 29°07' W 094°26'511.6
2018-Jul-19 00:30N 29°12' W 094°30'611.1
2018-Jul-19 00:00N 29°16' W 094°34'612.9
2018-Jul-18 23:30N 29°20' W 094°40'611.3
2018-Jul-18 23:00N 29°21' W 094°46'611.1
2018-Jul-18 22:31N 29°25' W 094°50'510.5
2018-Jul-18 22:00N 29°30' W 094°52'5 9.7
2018-Jul-18 21:30N 29°34' W 094°55'5 9.1
2018-Jul-18 21:00N 29°38' W 094°58'4 8.1
2018-Jul-18 20:30N 29°42' W 094°60'3 5.9
2018-Jul-18 20:01N 29°44' W 095°02'3 6.2
2018-Jul-18 19:30N 29°46' W 095°05'2 4.9
2018-Jul-18 19:00N 29°44' W 095°07'0 0.6
2018-Jul-18 18:31N 29°44' W 095°08'0 0.0
2018-Jul-18 17:52N 29°44' W 095°08'0 0.0
2018-Jul-17 08:13N 29°44' W 095°08'0 0.0
2018-Jul-17 05:55N 29°44' W 095°08'0 0.0
2018-Jul-17 05:22N 29°44' W 095°08'0 0.0
2018-Jul-17 04:52N 29°44' W 095°08'0 0.0
2018-Jul-17 03:34N 29°44' W 095°08'  
2018-Jul-14 23:34N 29°44' W 095°08'0 0.1
2018-Jul-14 23:28N 29°44' W 095°08'1 1.8
2018-Jul-14 23:00N 29°44' W 095°07'2 4.9
2018-Jul-14 22:30N 29°45' W 095°04'4 6.9
2018-Jul-14 22:00N 29°43' W 095°01'4 9.0
2018-Jul-14 21:30N 29°39' W 094°58'612.0
2018-Jul-14 21:00N 29°34' W 094°55'713.2
2018-Jul-14 20:30N 29°28' W 094°51'713.7
2018-Jul-14 20:00N 29°22' W 094°48'814.7
2018-Jul-14 19:29N 29°20' W 094°40'611.6
2018-Jul-14 19:00N 29°18' W 094°33'1 1.4
2018-Jul-14 18:25N 29°19' W 094°33'0 0.0
2018-Jul-14 17:55N 29°19' W 094°33'0 0.0
2018-Jul-14 17:28N 29°19' W 094°33'0 0.0
2018-Jul-14 16:58N 29°19' W 094°33'0 0.1
2018-Jul-14 16:25N 29°18' W 094°33'0 0.1
2018-Jul-14 15:49N 29°18' W 094°33'0 0.1
2018-Jul-14 15:28N 29°18' W 094°33'0 0.1
2018-Jul-14 14:55N 29°18' W 094°33'0 0.0
2018-Jul-14 14:28N 29°18' W 094°33'0 0.1
2018-Jul-14 13:22N 29°18' W 094°33'0 0.1
2018-Jul-14 12:58N 29°19' W 094°33'0 0.0
2018-Jul-14 09:19N 29°19' W 094°33'0 0.0
2018-Jul-14 07:52N 29°19' W 094°33'0 0.0
2018-Jul-14 06:58N 29°19' W 094°33'0 0.0
2018-Jul-14 05:25N 29°19' W 094°33'0 0.0
2018-Jul-14 04:37N 29°19' W 094°33'0 0.0
2018-Jul-14 04:01N 29°19' W 094°33'0 0.0
2018-Jul-14 03:58N 29°19' W 094°33'0 0.0
2018-Jul-14 02:46N 29°19' W 094°33'0 0.0
2018-Jul-14 01:22N 29°19' W 094°33'0 0.0
2018-Jul-14 01:00N 29°19' W 094°33'0 0.1
2018-Jul-14 00:30N 29°19' W 094°33'0 0.0
2018-Jul-14 00:00N 29°19' W 094°33'0 0.0
2018-Jul-13 23:29N 29°19' W 094°33'0 0.0
2018-Jul-13 23:01N 29°19' W 094°33'0 0.0
2018-Jul-13 22:30N 29°19' W 094°33'0 0.0
2018-Jul-13 21:59N 29°19' W 094°33'0 0.0
2018-Jul-13 21:30N 29°19' W 094°33'0 0.0
2018-Jul-13 20:59N 29°19' W 094°33'0 0.0
2018-Jul-13 20:21N 29°19' W 094°33'0 0.0
2018-Jul-13 20:00N 29°19' W 094°33'0 0.1
2018-Jul-13 19:28N 29°19' W 094°33'0 0.1
2018-Jul-13 18:59N 29°18' W 094°33'1 2.2
2018-Jul-13 18:30N 29°19' W 094°32'5 7.8
2018-Jul-13 17:54N 29°14' W 094°31'512.5
2018-Jul-13 17:30N 29°12' W 094°27'  

Dump ship's entire track history